createdAt,value
2023-02-15T00:00:12.137Z,6.70
2023-02-15T00:02:40.363Z,6.70
2023-02-15T00:05:08.246Z,7.20
2023-02-15T00:07:35.577Z,6.80
2023-02-15T00:10:03.021Z,6.90
2023-02-15T00:12:30.352Z,6.70
2023-02-15T00:14:57.608Z,7.00
2023-02-15T00:17:25.243Z,6.80
2023-02-15T00:22:20.851Z,6.80
2023-02-15T00:24:48.128Z,6.60
2023-02-15T00:27:15.393Z,7.20
2023-02-15T00:29:42.651Z,6.60
2023-02-15T00:32:09.886Z,6.40
2023-02-15T00:34:37.235Z,6.50
2023-02-15T00:37:04.548Z,6.60
2023-02-15T00:41:59.904Z,6.30
2023-02-15T00:44:27.240Z,6.40
2023-02-15T00:46:57.402Z,6.40
2023-02-15T00:49:24.682Z,6.30
2023-02-15T00:51:51.989Z,6.20
2023-02-15T00:59:14.664Z,6.30
2023-02-15T01:01:42.045Z,6.20
2023-02-15T01:04:09.409Z,6.40
2023-02-15T01:06:37.116Z,6.40
2023-02-15T01:09:04.466Z,6.60
2023-02-15T01:11:31.766Z,6.50
2023-02-15T01:13:59.425Z,6.60
2023-02-15T01:16:28.932Z,6.50
2023-02-15T01:21:28.171Z,6.60
2023-02-15T01:23:55.508Z,6.60
2023-02-15T01:26:22.835Z,6.30
2023-02-15T01:31:20.141Z,6.50
2023-02-15T01:33:48.435Z,6.40
2023-02-15T01:38:45.879Z,6.40
2023-02-15T01:41:25.479Z,6.30
2023-02-15T01:44:00.666Z,6.20
2023-02-15T01:46:33.442Z,7.20
2023-02-15T01:49:11.534Z,6.10
2023-02-15T01:51:42.142Z,6.20
2023-02-15T01:54:16.927Z,6.00
2023-02-15T01:59:17.255Z,6.00
2023-02-15T02:01:45.472Z,6.00
2023-02-15T02:04:25.939Z,6.40
2023-02-15T02:06:54.123Z,6.00
2023-02-15T02:09:21.411Z,5.90
2023-02-15T02:11:49.518Z,6.00
2023-02-15T02:14:17.658Z,6.00
2023-02-15T02:17:11.488Z,6.10
2023-02-15T02:20:01.680Z,5.90
2023-02-15T02:22:49.789Z,5.90
2023-02-15T02:25:24.883Z,5.90
2023-02-15T02:28:19.100Z,5.90
2023-02-15T02:31:04.540Z,5.90
2023-02-15T02:33:42.150Z,6.10
2023-02-15T02:36:18.537Z,6.00
2023-02-15T02:39:17.749Z,7.60
2023-02-15T02:41:58.245Z,6.50
2023-02-15T02:45:06.327Z,6.20
2023-02-15T02:47:40.972Z,6.20
2023-02-15T02:50:16.438Z,7.00
2023-02-15T02:52:50.813Z,6.30
2023-02-15T02:55:23.807Z,6.30
2023-02-15T02:58:01.887Z,6.30
2023-02-15T03:00:33.886Z,6.50
2023-02-15T03:03:05.845Z,6.30
2023-02-15T03:05:36.723Z,6.40
2023-02-15T03:08:07.130Z,6.40
2023-02-15T03:10:37.606Z,6.40
2023-02-15T03:13:06.173Z,6.20
2023-02-15T03:15:57.608Z,7.30
2023-02-15T03:18:32.129Z,6.00
2023-02-15T03:21:02.561Z,6.00
2023-02-15T03:23:31.400Z,6.30
2023-02-15T03:26:03.390Z,6.00
2023-02-15T03:28:46.296Z,6.10
2023-02-15T03:31:16.637Z,6.00
2023-02-15T03:33:56.315Z,5.60
2023-02-15T03:37:08.242Z,5.70
2023-02-15T03:39:49.884Z,5.60
2023-02-15T03:42:34.008Z,5.50
2023-02-15T03:45:12.610Z,5.10
2023-02-15T03:47:45.856Z,5.60
2023-02-15T03:50:41.477Z,5.40
2023-02-15T03:53:14.488Z,5.10
2023-02-15T03:55:41.918Z,5.60
2023-02-15T03:58:27.769Z,4.90
2023-02-15T04:01:28.957Z,5.20
2023-02-15T04:04:06.096Z,5.10
2023-02-15T04:06:33.388Z,5.20
2023-02-15T04:09:19.206Z,5.50
2023-02-15T04:11:46.722Z,5.50
2023-02-15T04:14:32.484Z,5.20
2023-02-15T04:16:59.758Z,5.60
2023-02-15T04:19:45.921Z,5.40
2023-02-15T04:22:31.805Z,5.60
2023-02-15T04:25:14.280Z,5.10
2023-02-15T04:27:44.527Z,5.80
2023-02-15T04:30:13.475Z,5.20
2023-02-15T04:32:40.867Z,5.10
2023-02-15T04:35:08.750Z,5.00
2023-02-15T04:37:36.338Z,4.70
2023-02-15T04:40:05.226Z,5.00
2023-02-15T04:42:32.664Z,5.10
2023-02-15T04:44:59.964Z,5.40
2023-02-15T04:47:27.496Z,5.40
2023-02-15T04:49:56.329Z,5.10
2023-02-15T04:52:25.486Z,5.30
2023-02-15T04:54:52.746Z,5.30
2023-02-15T04:57:20.029Z,5.70
2023-02-15T04:59:47.255Z,5.50
2023-02-15T05:02:14.622Z,5.60
2023-02-15T05:04:41.843Z,5.60
2023-02-15T05:09:36.770Z,6.10
2023-02-15T05:12:04.292Z,6.10
2023-02-15T05:14:31.553Z,5.80
2023-02-15T05:17:01.839Z,5.80
2023-02-15T05:19:29.120Z,5.70
2023-02-15T05:21:56.982Z,5.70
2023-02-15T05:24:43.047Z,5.50
2023-02-15T05:27:31.941Z,5.40
2023-02-15T05:29:59.303Z,5.70
2023-02-15T05:34:54.359Z,5.20
2023-02-15T05:37:21.679Z,5.20
2023-02-15T05:39:48.939Z,5.00
2023-02-15T05:42:16.209Z,5.10
2023-02-15T05:44:43.509Z,5.20
2023-02-15T05:47:10.739Z,5.20
2023-02-15T05:49:38.067Z,5.30
2023-02-15T05:52:05.572Z,5.50
2023-02-15T05:54:32.886Z,5.40
2023-02-15T05:57:00.206Z,6.30
2023-02-15T05:59:27.453Z,5.40
2023-02-15T06:01:54.755Z,5.40
2023-02-15T06:04:22.040Z,5.40
2023-02-15T06:06:49.328Z,5.60
2023-02-15T06:09:19.235Z,5.50
2023-02-15T06:11:47.164Z,5.60
2023-02-15T06:14:14.471Z,5.50
2023-02-15T06:16:41.914Z,5.40
2023-02-15T06:19:09.199Z,5.50
2023-02-15T06:21:36.477Z,5.40
2023-02-15T06:24:03.990Z,5.50
2023-02-15T06:26:31.295Z,5.60
2023-02-15T06:28:58.566Z,5.50
2023-02-15T06:31:25.941Z,5.20
2023-02-15T06:33:53.325Z,5.10
2023-02-15T06:36:20.587Z,5.50
2023-02-15T06:38:47.815Z,5.70
2023-02-15T06:41:15.080Z,5.50
2023-02-15T06:43:42.446Z,5.60
2023-02-15T06:46:09.795Z,5.20
2023-02-15T06:48:37.086Z,5.60
2023-02-15T06:51:04.475Z,5.20
2023-02-15T06:53:31.830Z,4.70
2023-02-15T06:56:09.833Z,5.30
2023-02-15T06:58:38.403Z,5.30
2023-02-15T07:01:06.243Z,5.30
2023-02-15T07:03:34.021Z,5.30
2023-02-15T07:06:04.289Z,5.10
2023-02-15T07:08:31.736Z,5.30
2023-02-15T07:11:19.085Z,5.90
2023-02-15T07:13:47.028Z,5.40
2023-02-15T07:16:14.840Z,5.50
2023-02-15T07:18:42.153Z,5.50
2023-02-15T07:21:09.462Z,5.60
2023-02-15T07:23:38.380Z,5.40
2023-02-15T07:26:07.016Z,5.40
2023-02-15T07:28:35.586Z,5.30
2023-02-15T07:31:06.656Z,5.70
2023-02-15T07:33:35.054Z,5.40
2023-02-15T07:36:04.854Z,5.50
2023-02-15T07:38:35.586Z,5.30
2023-02-15T07:41:05.426Z,5.30
2023-02-15T07:43:35.248Z,5.50
2023-02-15T07:46:08.821Z,5.10
2023-02-15T07:48:37.086Z,5.30
2023-02-15T07:51:06.420Z,5.40
2023-02-15T07:53:34.975Z,5.80
2023-02-15T07:56:07.098Z,6.00
2023-02-15T07:58:53.668Z,5.70
2023-02-15T08:01:22.461Z,5.90
2023-02-15T08:03:50.630Z,6.00
2023-02-15T08:06:18.869Z,6.40
2023-02-15T08:08:47.459Z,6.30
2023-02-15T08:11:26.424Z,6.40
2023-02-15T08:14:03.563Z,6.80
2023-02-15T08:16:35.963Z,6.40
2023-02-15T08:19:08.039Z,7.30
2023-02-15T08:21:37.126Z,6.70
2023-02-15T08:24:05.931Z,6.90
2023-02-15T08:26:34.281Z,6.80
2023-02-15T08:29:02.360Z,7.10
2023-02-15T08:31:30.382Z,7.20
2023-02-15T08:33:58.168Z,7.20
2023-02-15T08:36:28.662Z,7.20
2023-02-15T08:38:59.242Z,7.40
2023-02-15T08:41:30.672Z,7.50
2023-02-15T08:44:00.879Z,7.50
2023-02-15T08:46:31.133Z,8.20
2023-02-15T08:48:59.065Z,7.80
2023-02-15T08:51:28.819Z,7.80
2023-02-15T08:53:59.312Z,7.90
2023-02-15T08:56:33.596Z,8.20
2023-02-15T08:59:01.508Z,8.20
2023-02-15T09:01:30.921Z,8.30
2023-02-15T09:04:01.098Z,8.30
2023-02-15T09:06:29.198Z,8.50
2023-02-15T09:08:57.666Z,9.00
2023-02-15T09:11:27.710Z,8.50
2023-02-15T09:13:57.466Z,9.40
2023-02-15T09:16:27.000Z,8.70
2023-02-15T09:18:55.374Z,9.00
2023-02-15T09:21:24.987Z,8.90
2023-02-15T09:23:56.230Z,8.90
2023-02-15T09:26:25.021Z,8.90
2023-02-15T09:28:56.576Z,9.20
2023-02-15T09:31:32.224Z,9.40
2023-02-15T09:34:03.963Z,9.20
2023-02-15T09:36:34.597Z,9.30
2023-02-15T09:39:28.335Z,9.40
2023-02-15T09:42:29.198Z,9.30
2023-02-15T09:45:41.192Z,9.30
2023-02-15T09:48:19.870Z,9.40
2023-02-15T09:51:26.155Z,9.50
2023-02-15T09:53:59.361Z,9.50
2023-02-15T09:56:38.454Z,9.60
2023-02-15T09:59:05.819Z,9.90
2023-02-15T10:01:57.970Z,9.70
2023-02-15T10:04:47.969Z,9.70
2023-02-15T10:07:36.697Z,9.80
2023-02-15T10:10:20.292Z,9.90
2023-02-15T10:13:05.631Z,9.90
2023-02-15T10:16:13.979Z,10.00
2023-02-15T10:18:50.404Z,10.10
2023-02-15T10:21:49.974Z,10.20
2023-02-15T10:24:23.251Z,10.20
2023-02-15T10:26:50.779Z,10.30
2023-02-15T10:29:38.656Z,10.10
2023-02-15T10:32:17.798Z,9.80
2023-02-15T10:35:04.194Z,10.00
2023-02-15T10:38:07.778Z,9.80
2023-02-15T10:40:52.446Z,10.10
2023-02-15T10:43:44.544Z,10.20
2023-02-15T10:46:45.611Z,10.30
2023-02-15T10:49:24.917Z,10.20
2023-02-15T10:52:37.440Z,10.70
2023-02-15T10:55:23.641Z,10.50
2023-02-15T10:58:27.779Z,10.60
2023-02-15T11:01:23.234Z,10.60
2023-02-15T11:04:22.031Z,10.80
2023-02-15T11:06:57.189Z,10.90
2023-02-15T11:09:30.418Z,11.20
2023-02-15T11:12:01.461Z,11.40
2023-02-15T11:14:38.706Z,11.80
2023-02-15T11:17:10.658Z,11.40
2023-02-15T11:19:48.634Z,11.40
2023-02-15T11:22:17.802Z,11.50
2023-02-15T11:24:47.712Z,11.90
2023-02-15T11:27:24.273Z,12.20
2023-02-15T11:30:01.611Z,12.10
2023-02-15T11:32:33.388Z,12.40
2023-02-15T11:35:12.978Z,12.50
2023-02-15T11:37:52.417Z,12.90
2023-02-15T11:40:34.191Z,13.30
2023-02-15T11:43:16.395Z,13.70
2023-02-15T11:45:46.236Z,13.70
2023-02-15T11:48:15.440Z,14.10
2023-02-15T11:50:45.167Z,14.40
2023-02-15T11:53:19.370Z,14.50
2023-02-15T11:55:49.182Z,14.90
2023-02-15T11:58:16.464Z,15.00
2023-02-15T12:00:46.830Z,15.30
2023-02-15T12:03:24.422Z,15.40
2023-02-15T12:05:58.582Z,15.70
2023-02-15T12:08:30.307Z,15.70
2023-02-15T12:11:06.941Z,15.40
2023-02-15T12:13:34.340Z,15.50
2023-02-15T12:16:12.551Z,15.70
2023-02-15T12:18:45.690Z,15.70
2023-02-15T12:21:27.500Z,15.70
2023-02-15T12:23:59.206Z,16.10
2023-02-15T12:26:32.349Z,15.90
2023-02-15T12:29:21.671Z,15.80
2023-02-15T12:31:52.743Z,15.90
2023-02-15T12:34:27.568Z,16.00
2023-02-15T12:37:01.188Z,15.70
2023-02-15T12:39:30.891Z,16.20
2023-02-15T12:42:15.613Z,16.00
2023-02-15T12:44:55.967Z,16.00
2023-02-15T12:47:28.908Z,16.30
2023-02-15T12:50:12.195Z,16.50
2023-02-15T12:52:40.433Z,16.60
2023-02-15T12:55:23.103Z,16.80
2023-02-15T12:58:05.412Z,17.10
2023-02-15T13:00:32.951Z,17.00
2023-02-15T13:03:01.405Z,17.50
2023-02-15T13:05:37.471Z,17.60
2023-02-15T13:08:15.623Z,17.70
2023-02-15T13:10:55.682Z,17.70
2023-02-15T13:13:32.306Z,17.80
2023-02-15T13:16:10.618Z,18.10
2023-02-15T13:18:40.548Z,18.20
2023-02-15T13:21:31.251Z,18.50
2023-02-15T13:24:07.241Z,18.50
2023-02-15T13:26:35.967Z,18.70
2023-02-15T13:29:36.152Z,19.00
2023-02-15T13:32:16.433Z,18.70
2023-02-15T13:34:43.809Z,18.80
2023-02-15T13:37:27.234Z,18.50
2023-02-15T13:40:19.277Z,18.50
2023-02-15T13:43:11.444Z,18.60
2023-02-15T13:46:00.193Z,18.60
2023-02-15T13:48:46.900Z,18.50
2023-02-15T13:51:54.660Z,18.60
2023-02-15T13:54:30.004Z,18.60
2023-02-15T13:57:12.488Z,18.70
2023-02-15T14:00:05.115Z,19.00
2023-02-15T14:03:01.841Z,19.10
2023-02-15T14:06:04.080Z,19.30
2023-02-15T14:08:57.769Z,20.00
2023-02-15T14:11:38.817Z,19.50
2023-02-15T14:14:48.516Z,19.40
2023-02-15T14:17:28.222Z,19.60
2023-02-15T14:20:07.425Z,19.50
2023-02-15T14:22:45.272Z,19.40
2023-02-15T14:25:33.508Z,19.70
2023-02-15T14:28:12.341Z,19.40
2023-02-15T14:30:45.473Z,19.30
2023-02-15T14:33:16.426Z,19.50
2023-02-15T14:35:44.793Z,19.30
2023-02-15T14:38:39.343Z,19.20
2023-02-15T14:41:41.371Z,19.20
2023-02-15T14:44:19.356Z,19.70
2023-02-15T14:47:02.268Z,19.40
2023-02-15T14:49:36.597Z,19.30
2023-02-15T14:52:09.448Z,19.00
2023-02-15T14:54:36.815Z,18.60
2023-02-15T14:57:04.056Z,18.80
2023-02-15T15:00:02.235Z,18.90
2023-02-15T15:02:49.892Z,19.00
2023-02-15T15:05:30.650Z,19.20
2023-02-15T15:08:00.715Z,19.30
2023-02-15T15:10:47.152Z,19.20
2023-02-15T15:13:32.522Z,19.10
2023-02-15T15:16:37.078Z,19.00
2023-02-15T15:19:09.977Z,19.00
2023-02-15T15:21:49.678Z,19.10
2023-02-15T15:24:39.139Z,19.10
2023-02-15T15:27:40.667Z,19.20
2023-02-15T15:30:20.414Z,19.30
2023-02-15T15:32:53.957Z,19.20
2023-02-15T15:35:58.992Z,19.00
2023-02-15T15:39:01.467Z,19.00
2023-02-15T15:41:44.852Z,18.70
2023-02-15T15:44:34.507Z,18.60
2023-02-15T15:47:27.905Z,18.50
2023-02-15T15:49:59.948Z,18.40
2023-02-15T15:52:29.638Z,18.70
2023-02-15T15:55:04.050Z,18.40
2023-02-15T15:57:39.182Z,18.30
2023-02-15T16:00:33.385Z,18.50
2023-02-15T16:03:00.899Z,18.20
2023-02-15T16:05:34.959Z,18.40
2023-02-15T16:08:02.360Z,18.10
2023-02-15T16:10:33.139Z,18.00
2023-02-15T16:13:01.187Z,18.00
2023-02-15T16:15:46.066Z,17.80
2023-02-15T16:18:18.372Z,17.30
2023-02-15T16:20:57.974Z,17.00
2023-02-15T16:23:40.398Z,16.80
2023-02-15T16:26:16.838Z,16.70
2023-02-15T16:28:54.756Z,16.50
2023-02-15T16:31:23.476Z,16.50
2023-02-15T16:33:54.695Z,16.30
2023-02-15T16:36:28.884Z,16.20
2023-02-15T16:38:56.109Z,16.00
2023-02-15T16:41:31.116Z,15.80
2023-02-15T16:44:04.203Z,15.30
2023-02-15T16:46:34.579Z,15.00
2023-02-15T16:49:08.801Z,14.80
2023-02-15T16:51:37.001Z,14.60
2023-02-15T16:54:08.669Z,14.40
2023-02-15T16:56:37.284Z,14.10
2023-02-15T16:59:04.943Z,14.30
2023-02-15T17:01:33.659Z,13.80
2023-02-15T17:04:26.957Z,13.90
2023-02-15T17:07:07.441Z,13.60
2023-02-15T17:09:34.916Z,13.50
2023-02-15T17:12:03.168Z,13.00
2023-02-15T17:14:40.839Z,13.30
2023-02-15T17:17:14.010Z,13.30
2023-02-15T17:19:55.624Z,12.70
2023-02-15T17:22:27.864Z,13.60
2023-02-15T17:25:01.038Z,13.00
2023-02-15T17:27:32.026Z,13.00
2023-02-15T17:30:02.619Z,12.90
2023-02-15T17:32:32.833Z,13.20
2023-02-15T17:35:35.518Z,12.90
2023-02-15T17:38:18.083Z,12.80
2023-02-15T17:40:45.346Z,12.70
2023-02-15T17:43:12.620Z,13.40
2023-02-15T17:45:47.805Z,12.60
2023-02-15T17:48:25.227Z,12.60
2023-02-15T17:50:52.641Z,13.40
2023-02-15T17:55:47.968Z,12.70
2023-02-15T17:58:17.202Z,12.40
2023-02-15T18:01:16.907Z,12.50
2023-02-15T18:04:08.368Z,12.30
2023-02-15T18:06:57.251Z,12.50
2023-02-15T18:12:19.956Z,12.40
2023-02-15T18:14:47.669Z,12.50
2023-02-15T18:17:16.276Z,12.70
2023-02-15T18:19:45.624Z,12.30
2023-02-15T18:22:15.513Z,12.30
2023-02-15T18:24:43.975Z,12.30
2023-02-15T18:27:16.598Z,12.30
2023-02-15T18:29:43.951Z,13.10
2023-02-15T18:32:21.935Z,12.30
2023-02-15T18:34:49.748Z,12.20
2023-02-15T18:37:20.799Z,12.40
2023-02-15T18:39:50.290Z,12.30
2023-02-15T18:42:27.716Z,12.50
2023-02-15T18:44:57.968Z,12.00
2023-02-15T18:47:26.131Z,12.00
2023-02-15T18:49:53.628Z,12.00
2023-02-15T18:52:24.350Z,11.80
2023-02-15T18:54:55.239Z,11.60
2023-02-15T18:57:22.620Z,11.90
2023-02-15T18:59:49.933Z,13.00
2023-02-15T19:02:18.873Z,12.10
2023-02-15T19:04:46.904Z,11.80
2023-02-15T19:07:22.475Z,12.20
2023-02-15T19:09:54.029Z,11.50
2023-02-15T19:12:21.353Z,11.70
2023-02-15T19:14:48.801Z,11.70
2023-02-15T19:17:19.306Z,11.70
2023-02-15T19:19:47.764Z,11.70
2023-02-15T19:22:27.725Z,11.70
2023-02-15T19:25:00.498Z,11.80
2023-02-15T19:27:31.927Z,11.60
2023-02-15T19:30:01.311Z,11.90
2023-02-15T19:32:30.505Z,11.50
2023-02-15T19:34:58.089Z,11.90
2023-02-15T19:37:40.240Z,12.40
2023-02-15T19:40:19.159Z,11.50
2023-02-15T19:42:46.430Z,11.50
2023-02-15T19:45:18.565Z,12.50
2023-02-15T19:47:48.055Z,11.40
2023-02-15T19:50:20.678Z,11.60
2023-02-15T19:52:48.785Z,11.40
2023-02-15T19:55:27.932Z,11.00
2023-02-15T19:57:56.682Z,11.30
2023-02-15T20:00:26.516Z,11.50
2023-02-15T20:02:55.464Z,11.20
2023-02-15T20:05:23.168Z,11.10
2023-02-15T20:07:53.761Z,11.20
2023-02-15T20:10:30.063Z,11.10
2023-02-15T20:12:58.396Z,11.00
2023-02-15T20:15:31.955Z,11.40
2023-02-15T20:18:02.708Z,11.20
2023-02-15T20:20:50.801Z,11.00
2023-02-15T20:23:24.673Z,10.80
2023-02-15T20:25:52.691Z,11.00
2023-02-15T20:28:26.001Z,11.00
2023-02-15T20:30:53.798Z,10.50
2023-02-15T20:33:22.880Z,10.80
2023-02-15T20:35:51.033Z,11.00
2023-02-15T20:38:28.274Z,10.90
2023-02-15T20:41:15.309Z,10.70
2023-02-15T20:43:42.709Z,10.80
2023-02-15T20:46:10.060Z,10.80
2023-02-15T20:48:37.494Z,10.90
2023-02-15T20:51:05.554Z,10.80
2023-02-15T20:53:33.036Z,10.70
2023-02-15T20:56:00.375Z,10.80
2023-02-15T20:58:30.022Z,10.70
2023-02-15T21:00:58.896Z,10.70
2023-02-15T21:03:30.716Z,10.70
2023-02-15T21:05:59.124Z,10.70
2023-02-15T21:08:27.254Z,11.00
2023-02-15T21:10:54.991Z,10.80
2023-02-15T21:13:30.355Z,10.60
2023-02-15T21:15:58.248Z,10.90
2023-02-15T21:18:33.956Z,11.50
2023-02-15T21:21:04.544Z,10.70
2023-02-15T21:23:38.708Z,11.60
2023-02-15T21:26:12.815Z,10.70
2023-02-15T21:28:41.295Z,11.80
2023-02-15T21:31:21.505Z,10.90
2023-02-15T21:33:49.003Z,10.80
2023-02-15T21:36:22.136Z,10.70
2023-02-15T21:38:50.537Z,10.60
2023-02-15T21:41:39.421Z,10.70
2023-02-15T21:44:45.493Z,10.80
2023-02-15T21:47:45.955Z,10.90
2023-02-15T21:50:40.137Z,10.50
2023-02-15T21:53:11.949Z,10.50
2023-02-15T21:55:39.265Z,10.70
2023-02-15T21:58:06.542Z,10.50
2023-02-15T22:00:34.071Z,10.60
2023-02-15T22:03:02.101Z,10.70
2023-02-15T22:05:34.226Z,10.80
2023-02-15T22:10:31.662Z,10.60
2023-02-15T22:13:03.316Z,10.70
2023-02-15T22:15:36.617Z,10.60
2023-02-15T22:18:04.992Z,10.70
2023-02-15T22:20:32.311Z,10.70
2023-02-15T22:22:59.656Z,10.90
2023-02-15T22:25:27.213Z,11.00
2023-02-15T22:27:55.195Z,10.90
2023-02-15T22:30:37.191Z,10.80
2023-02-15T22:33:04.536Z,10.80
2023-02-15T22:35:34.290Z,10.80
2023-02-15T22:38:01.762Z,11.00
2023-02-15T22:40:32.151Z,10.90
2023-02-15T22:43:04.902Z,10.80
2023-02-15T22:45:33.537Z,10.70
2023-02-15T22:48:01.245Z,10.90
2023-02-15T22:50:32.239Z,10.90
2023-02-15T22:53:01.367Z,10.90
2023-02-15T22:55:32.257Z,10.80
2023-02-15T22:58:00.146Z,11.10
2023-02-15T23:00:38.215Z,10.90
2023-02-15T23:03:16.730Z,11.10
2023-02-15T23:05:44.949Z,11.10
2023-02-15T23:08:12.599Z,11.10
2023-02-15T23:10:41.328Z,11.00
2023-02-15T23:13:24.934Z,11.10
2023-02-15T23:15:57.609Z,11.30
2023-02-15T23:18:40.566Z,11.40
2023-02-15T23:21:26.731Z,11.00
2023-02-15T23:23:57.719Z,11.00
2023-02-15T23:26:28.732Z,10.70
2023-02-15T23:28:58.428Z,11.00
2023-02-15T23:31:34.658Z,11.00
2023-02-15T23:34:07.129Z,11.00
2023-02-15T23:36:38.975Z,11.00
2023-02-15T23:39:40.303Z,10.90
2023-02-15T23:42:18.824Z,10.90
2023-02-15T23:44:47.899Z,10.90
2023-02-15T23:47:47.147Z,10.90
2023-02-15T23:50:26.070Z,10.70
2023-02-15T23:52:55.255Z,11.00
2023-02-15T23:55:28.230Z,11.00
2023-02-15T23:57:55.543Z,11.90
